Time;durP1;ratioP1;P1;durP2;ratioP2;P2;SDS_P1;SDS_P2;PMS_P1;PMS_P2;Temp;Humidity;BMP_temperature;BMP_pressure;BME280_temperature;BME280_humidity;BME280_pressure;Samples;Min_cycle;Max_cycle;Signal;HPM_P1;HPM_P2
2021/07/15 00:02:24;;;;;;;11.35;5.55;;;19.60;72.40;;;;;;4418276;32;20148;-70
2021/07/15 00:04:50;;;;;;;13.40;5.87;;;19.60;73.20;;;;;;4393228;32;20073;-69
2021/07/15 00:07:16;;;;;;;11.20;5.22;;;19.50;73.10;;;;;;4405577;32;20140;-68
2021/07/15 00:09:43;;;;;;;10.77;5.72;;;19.50;72.90;;;;;;4380705;32;20145;-70
2021/07/15 00:12:13;;;;;;;12.37;5.20;;;19.60;71.30;;;;;;4392432;32;20065;-70
2021/07/15 00:14:39;;;;;;;10.18;4.93;;;19.50;70.40;;;;;;4418047;32;20077;-68
2021/07/15 00:17:05;;;;;;;8.00;4.87;;;19.50;69.90;;;;;;4380482;32;20062;-70
2021/07/15 00:19:32;;;;;;;9.98;5.35;;;19.40;70.70;;;;;;4392961;32;20157;-68
2021/07/15 00:21:59;;;;;;;10.45;5.10;;;19.30;69.10;;;;;;4392838;32;20153;-70
2021/07/15 00:24:26;;;;;;;13.55;5.22;;;19.30;69.60;;;;;;4393280;32;20068;-70
2021/07/15 00:26:52;;;;;;;9.50;4.97;;;19.30;68.50;;;;;;4380286;32;20072;-71
2021/07/15 00:29:20;;;;;;;12.10;5.53;;;19.30;68.80;;;;;;4393134;32;20069;-69
2021/07/15 00:31:46;;;;;;;9.48;5.47;;;19.30;72.10;;;;;;4392825;32;20080;-70
2021/07/15 00:34:12;;;;;;;11.80;5.35;;;19.20;66.90;;;;;;4405260;32;20533;-69
2021/07/15 00:36:39;;;;;;;10.40;5.40;;;19.00;68.30;;;;;;4392834;32;20085;-70
2021/07/15 00:39:06;;;;;;;10.57;5.70;;;18.90;66.90;;;;;;4390479;32;20065;-70
2021/07/15 00:41:33;;;;;;;8.70;5.55;;;19.10;67.50;;;;;;4365432;32;20159;-69
2021/07/15 00:43:59;;;;;;;9.07;5.60;;;18.90;67.80;;;;;;4389755;32;20085;-68
2021/07/15 00:46:26;;;;;;;14.65;6.25;;;18.80;67.90;;;;;;4389670;32;20462;-69
2021/07/15 00:48:52;;;;;;;15.27;6.90;;;18.80;70.90;;;;;;4402369;32;20530;-70
2021/07/15 00:51:18;;;;;;;11.70;7.15;;;18.70;72.30;;;;;;4377466;32;20085;-69
2021/07/15 00:53:44;;;;;;;14.05;7.43;;;18.60;74.40;;;;;;4389994;32;20078;-70
2021/07/15 00:56:11;;;;;;;13.70;7.25;;;18.70;74.80;;;;;;4360214;32;20070;-69
2021/07/15 00:58:37;;;;;;;12.63;6.68;;;18.70;73.90;;;;;;4373759;32;20151;-69
2021/07/15 01:01:03;;;;;;;11.77;6.07;;;18.70;72.00;;;;;;4399766;32;20137;-72
2021/07/15 01:03:30;;;;;;;11.30;6.65;;;18.70;72.80;;;;;;4386760;32;20146;-69
2021/07/15 01:05:57;;;;;;;13.38;5.97;;;18.60;75.90;;;;;;4385883;32;20100;-68
2021/07/15 01:08:23;;;;;;;13.75;7.37;;;18.70;76.30;;;;;;4386632;32;20069;-74
2021/07/15 01:11:23;;;;;;;11.15;6.55;;;18.50;75.70;;;;;;4384274;32;20073;-70
2021/07/15 01:13:55;;;;;;;7.65;4.70;;;18.70;74.50;;;;;;4393760;32;20089;-70
2021/07/15 01:16:37;;;;;;;8.65;4.37;;;18.50;70.40;;;;;;4400675;32;20074;-70
2021/07/15 01:19:33;;;;;;;8.90;4.65;;;18.50;66.60;;;;;;4373512;32;20166;-69
2021/07/15 01:22:12;;;;;;;7.85;4.32;;;18.40;67.90;;;;;;4370981;32;20088;-70
2021/07/15 01:25:27;;;;;;;10.35;5.00;;;18.60;66.80;;;;;;4363302;32;20089;-71
2021/07/15 01:28:11;;;;;;;7.97;5.00;;;18.60;67.40;;;;;;4381401;32;20515;-70
2021/07/15 01:30:46;;;;;;;7.70;5.03;;;18.60;66.10;;;;;;4379647;32;20087;-69
2021/07/15 01:33:21;;;;;;;9.57;5.53;;;18.60;65.50;;;;;;4368431;32;20073;-69
2021/07/15 01:36:09;;;;;;;14.55;5.55;;;18.60;66.00;;;;;;4356124;32;20093;-70
2021/07/15 01:38:41;;;;;;;9.68;5.87;;;18.60;66.80;;;;;;4379579;32;20096;-70
2021/07/15 01:41:14;;;;;;;8.32;4.85;;;18.50;65.90;;;;;;4355280;32;20607;-70
2021/07/15 01:43:43;;;;;;;7.93;4.82;;;18.50;65.60;;;;;;4355753;32;20096;-70
2021/07/15 01:46:11;;;;;;;11.95;5.28;;;18.60;65.60;;;;;;4355383;32;20084;-70
2021/07/15 01:48:38;;;;;;;11.55;5.45;;;18.60;66.20;;;;;;4354934;32;20078;-69
2021/07/15 01:51:05;;;;;;;8.63;5.35;;;18.80;65.80;;;;;;4354843;32;20239;-70
2021/07/15 01:53:31;;;;;;;15.02;5.37;;;18.80;65.80;;;;;;4379276;32;20175;-70
2021/07/15 01:55:57;;;;;;;10.85;4.90;;;18.90;66.90;;;;;;4354662;32;20183;-70
2021/07/15 01:58:25;;;;;;;7.87;4.85;;;18.90;67.20;;;;;;4353908;32;20076;-69
2021/07/15 02:00:52;;;;;;;9.52;4.53;;;18.90;67.90;;;;;;4354391;32;20074;-68
2021/07/15 02:03:18;;;;;;;9.02;4.70;;;19.00;68.50;;;;;;4366424;32;20467;-70
2021/07/15 02:05:45;;;;;;;7.37;4.20;;;19.10;68.60;;;;;;4378989;32;20106;-69
2021/07/15 02:08:11;;;;;;;7.57;4.22;;;19.00;69.10;;;;;;4365629;32;20235;-68
2021/07/15 02:10:37;;;;;;;8.38;4.68;;;19.10;68.70;;;;;;4366835;32;20092;-69
2021/07/15 02:13:04;;;;;;;7.45;4.30;;;19.00;69.70;;;;;;4365982;32;20073;-70
2021/07/15 02:15:31;;;;;;;7.90;4.40;;;19.10;70.30;;;;;;4353910;32;20499;-68
2021/07/15 02:17:57;;;;;;;8.00;4.45;;;18.90;70.50;;;;;;4366413;32;20471;-70
2021/07/15 02:20:24;;;;;;;7.20;4.12;;;19.00;70.00;;;;;;4353620;32;20080;-69
2021/07/15 02:22:50;;;;;;;7.10;3.42;;;19.20;70.10;;;;;;4365853;32;20514;-70
2021/07/15 02:25:17;;;;;;;5.30;3.60;;;19.20;68.10;;;;;;4365889;32;20070;-69
2021/07/15 02:27:45;;;;;;;7.20;4.15;;;19.30;67.60;;;;;;4366228;32;20082;-70
2021/07/15 02:30:15;;;;;;;8.77;3.87;;;19.50;67.30;;;;;;4354337;32;20070;-70
2021/07/15 02:32:56;;;;;;;9.73;3.92;;;19.50;62.50;;;;;;4378451;32;20481;-70
2021/07/15 02:35:23;;;;;;;7.43;4.12;;;19.50;63.70;;;;;;4353832;32;20077;-69
2021/07/15 02:37:51;;;;;;;7.87;4.43;;;19.50;64.70;;;;;;4366466;32;20151;-70
2021/07/15 02:40:18;;;;;;;6.32;3.95;;;19.60;63.70;;;;;;4355810;32;20148;-69
2021/07/15 02:42:44;;;;;;;6.50;3.83;;;19.80;61.60;;;;;;4370871;32;20058;-70
2021/07/15 02:45:15;;;;;;;9.82;4.25;;;19.80;59.70;;;;;;4354395;32;20077;-70
2021/07/15 02:47:42;;;;;;;8.30;4.18;;;19.80;63.10;;;;;;4366158;32;20150;-70
2021/07/15 02:50:10;;;;;;;7.35;3.95;;;19.90;62.50;;;;;;4378574;32;20072;-70
2021/07/15 02:52:36;;;;;;;9.27;3.83;;;19.80;61.40;;;;;;4366527;32;20093;-69
2021/07/15 02:55:03;;;;;;;8.00;3.70;;;19.90;58.00;;;;;;4391104;32;20084;-70
2021/07/15 02:57:35;;;;;;;7.18;3.67;;;19.70;55.80;;;;;;4378105;32;20101;-69
2021/07/15 03:00:07;;;;;;;7.22;3.25;;;19.70;57.10;;;;;;4378682;32;20109;-69
2021/07/15 03:02:57;;;;;;;6.45;3.47;;;19.90;56.90;;;;;;4378033;32;20157;-70
2021/07/15 03:05:43;;;;;;;6.25;3.00;;;20.10;56.20;;;;;;4390514;32;20462;-69
2021/07/15 03:08:11;;;;;;;5.53;2.67;;;20.30;54.40;;;;;;4353852;32;20526;-69
2021/07/15 03:10:37;;;;;;;4.97;3.15;;;20.30;52.40;;;;;;4366079;32;20101;-69
2021/07/15 03:13:08;;;;;;;6.12;3.40;;;20.50;51.30;;;;;;4378053;32;20166;-70
2021/07/15 03:15:35;;;;;;;6.62;3.40;;;20.30;52.40;;;;;;4378501;32;20522;-70
2021/07/15 03:18:02;;;;;;;5.68;2.83;;;20.30;50.30;;;;;;4352940;32;20499;-69
2021/07/15 03:20:37;;;;;;;6.47;3.00;;;20.40;49.60;;;;;;4378196;32;20556;-70
2021/07/15 03:23:09;;;;;;;8.63;3.62;;;20.40;49.70;;;;;;4365552;32;20069;-69
2021/07/15 03:25:35;;;;;;;6.18;3.45;;;20.30;49.50;;;;;;4365686;32;20070;-68
2021/07/15 03:28:09;;;;;;;6.37;2.92;;;20.50;48.90;;;;;;4365773;32;20152;-70
2021/07/15 03:30:36;;;;;;;6.62;2.92;;;20.70;47.30;;;;;;4365989;32;20084;-70
2021/07/15 03:33:02;;;;;;;5.55;3.35;;;20.90;46.90;;;;;;4365249;32;20082;-69
2021/07/15 03:35:28;;;;;;;4.78;3.25;;;20.90;45.50;;;;;;4352579;32;20080;-69
2021/07/15 03:37:54;;;;;;;5.87;2.92;;;21.00;45.00;;;;;;4365571;32;20174;-69
2021/07/15 03:40:26;;;;;;;6.28;2.97;;;21.00;44.50;;;;;;4365110;32;20070;-68
2021/07/15 03:42:52;;;;;;;8.68;2.90;;;20.90;45.40;;;;;;4364837;32;20441;-70
2021/07/15 03:45:19;;;;;;;6.22;2.85;;;21.00;44.10;;;;;;4390242;32;20499;-69
2021/07/15 03:47:52;;;;;;;5.22;2.80;;;21.20;44.20;;;;;;4352998;32;20094;-69
2021/07/15 03:50:26;;;;;;;6.85;3.00;;;21.30;44.20;;;;;;4377236;32;20069;-69
2021/07/15 03:52:59;;;;;;;4.80;2.60;;;21.50;44.60;;;;;;4353402;32;20089;-69
2021/07/15 03:55:27;;;;;;;7.50;2.75;;;21.60;43.30;;;;;;4365424;32;20078;-69
2021/07/15 03:57:54;;;;;;;7.12;2.78;;;21.70;43.80;;;;;;4377991;32;20082;-69
2021/07/15 04:00:22;;;;;;;3.72;2.62;;;21.80;42.10;;;;;;4365210;32;20069;-69
2021/07/15 04:02:49;;;;;;;3.25;2.47;;;21.70;40.20;;;;;;4365455;32;20086;-69
2021/07/15 04:05:15;;;;;;;4.32;2.87;;;21.80;39.30;;;;;;4364925;32;20468;-69
2021/07/15 04:07:42;;;;;;;3.83;2.40;;;22.00;39.60;;;;;;4365167;32;20077;-69
2021/07/15 04:10:10;;;;;;;6.47;2.75;;;22.00;39.20;;;;;;4377205;32;20078;-70
2021/07/15 04:12:36;;;;;;;3.45;2.42;;;22.10;39.10;;;;;;4365387;32;20102;-68
2021/07/15 04:15:14;;;;;;;3.47;2.47;;;22.10;39.80;;;;;;4377800;32;20074;-70
2021/07/15 04:17:50;;;;;;;4.50;2.70;;;22.20;39.60;;;;;;4353523;32;20496;-69
2021/07/15 04:20:19;;;;;;;5.65;2.45;;;22.40;39.10;;;;;;4377593;32;20074;-69
2021/07/15 04:22:47;;;;;;;7.22;2.58;;;22.50;39.30;;;;;;4353099;32;20153;-70
2021/07/15 04:25:19;;;;;;;3.80;2.50;;;22.50;39.00;;;;;;4365345;32;20089;-68
2021/07/15 04:27:46;;;;;;;5.03;2.42;;;22.60;38.50;;;;;;4352649;32;20073;-69
2021/07/15 04:30:14;;;;;;;4.47;2.75;;;22.80;37.70;;;;;;4353450;32;20085;-69
2021/07/15 04:33:12;;;;;;;5.03;2.75;;;22.80;38.20;;;;;;4380441;32;20178;-70
2021/07/15 04:35:39;;;;;;;4.65;2.75;;;23.00;38.00;;;;;;4369701;32;20097;-70
2021/07/15 04:38:05;;;;;;;5.55;2.87;;;24.00;37.40;;;;;;4380083;32;20520;-69
2021/07/15 04:40:33;;;;;;;6.43;2.60;;;26.70;30.00;;;;;;4380216;32;20511;-70
2021/07/15 04:43:04;;;;;;;5.85;3.08;;;27.30;27.00;;;;;;4355074;32;20097;-70
2021/07/15 04:45:31;;;;;;;9.18;3.60;;;27.50;26.40;;;;;;4379880;32;20527;-70
2021/07/15 04:47:58;;;;;;;15.57;4.18;;;27.30;26.90;;;;;;4380836;32;20078;-70
2021/07/15 04:50:30;;;;;;;7.50;3.22;;;28.00;25.90;;;;;;4380165;32;20162;-70
2021/07/15 04:53:12;;;;;;;7.30;3.53;;;28.40;26.00;;;;;;4355363;32;20086;-69
2021/07/15 04:55:38;;;;;;;8.45;3.78;;;28.80;24.70;;;;;;4368539;32;20077;-69
2021/07/15 04:58:05;;;;;;;5.43;3.40;;;28.20;24.00;;;;;;4355161;32;20507;-67
2021/07/15 05:00:32;;;;;;;7.18;3.62;;;28.70;23.10;;;;;;4355282;32;20069;-69
2021/07/15 05:03:15;;;;;;;6.25;3.72;;;29.20;23.50;;;;;;4379508;32;20173;-68
2021/07/15 05:05:42;;;;;;;6.15;3.42;;;28.80;22.60;;;;;;4380150;32;20089;-66
2021/07/15 05:08:08;;;;;;;5.53;4.15;;;29.00;22.60;;;;;;4379921;32;20098;-67
2021/07/15 05:10:34;;;;;;;12.88;4.95;;;28.30;22.20;;;;;;4393376;32;20097;-67
2021/07/15 05:13:01;;;;;;;8.85;4.80;;;28.70;23.30;;;;;;4392027;32;20089;-68
2021/07/15 05:15:27;;;;;;;10.10;4.93;;;30.10;21.90;;;;;;4391901;32;20483;-67
2021/07/15 05:17:53;;;;;;;8.35;5.35;;;29.20;21.50;;;;;;4366956;32;20105;-67
2021/07/15 05:20:20;;;;;;;11.90;6.20;;;29.60;23.00;;;;;;4379465;32;20607;-68
2021/07/15 05:22:46;;;;;;;9.48;7.32;;;29.20;22.20;;;;;;4379679;32;20440;-68
2021/07/15 05:25:12;;;;;;;7.82;4.65;;;29.90;21.80;;;;;;4379168;32;20534;-69
2021/07/15 05:27:39;;;;;;;5.62;2.90;;;29.90;21.00;;;;;;4379307;32;20093;-70
2021/07/15 05:30:07;;;;;;;6.45;3.17;;;29.30;21.30;;;;;;4391897;32;20068;-70
2021/07/15 05:32:33;;;;;;;4.80;2.85;;;29.20;20.70;;;;;;4379159;32;20074;-69
2021/07/15 05:35:00;;;;;;;7.62;3.30;;;30.20;21.00;;;;;;4379021;32;20062;-70
2021/07/15 05:37:26;;;;;;;8.30;3.25;;;29.00;21.70;;;;;;4355050;32;20086;-70
2021/07/15 05:39:52;;;;;;;7.28;2.78;;;29.40;21.40;;;;;;4354462;32;20467;-69
2021/07/15 05:42:19;;;;;;;9.40;3.22;;;30.30;20.00;;;;;;4379221;32;20085;-70
2021/07/15 05:44:45;;;;;;;4.47;2.90;;;29.40;21.10;;;;;;4368119;32;20102;-70
2021/07/15 05:47:12;;;;;;;8.38;2.90;;;28.10;22.00;;;;;;4396247;32;20104;-70
2021/07/15 05:49:38;;;;;;;5.72;2.62;;;28.00;23.50;;;;;;4379881;32;20079;-69
2021/07/15 05:52:05;;;;;;;9.18;2.90;;;28.50;23.30;;;;;;4354810;32;20085;-70
2021/07/15 05:54:32;;;;;;;4.93;2.78;;;28.00;23.30;;;;;;4366888;32;20559;-69
2021/07/15 05:56:58;;;;;;;6.53;3.10;;;28.20;22.70;;;;;;4378576;32;20097;-70
2021/07/15 05:59:24;;;;;;;5.62;2.70;;;29.60;21.20;;;;;;4391088;32;20105;-70
2021/07/15 06:01:50;;;;;;;5.40;2.60;;;29.80;22.00;;;;;;4378901;32;20459;-69
2021/07/15 06:04:17;;;;;;;7.78;2.80;;;29.10;21.50;;;;;;4354101;32;20085;-70
2021/07/15 06:06:43;;;;;;;7.95;3.20;;;29.60;22.10;;;;;;4378288;32;20184;-70
2021/07/15 06:09:10;;;;;;;6.65;2.60;;;29.10;22.40;;;;;;4392745;32;20069;-70
2021/07/15 06:11:36;;;;;;;7.43;3.10;;;29.60;22.30;;;;;;4379523;32;20177;-70
2021/07/15 06:14:02;;;;;;;5.65;2.75;;;29.70;22.70;;;;;;4391285;32;20151;-70
2021/07/15 06:16:29;;;;;;;4.60;2.60;;;29.30;23.10;;;;;;4366610;32;20523;-70
2021/07/15 06:18:55;;;;;;;3.25;2.40;;;29.00;22.70;;;;;;4366202;32;20162;-70
2021/07/15 06:21:21;;;;;;;6.43;3.03;;;29.70;21.90;;;;;;4366215;32;20089;-70
2021/07/15 06:23:47;;;;;;;6.68;3.00;;;29.80;22.50;;;;;;4391107;32;20512;-70
2021/07/15 06:26:13;;;;;;;4.78;2.78;;;29.70;21.20;;;;;;4366148;32;20088;-69
2021/07/15 06:28:40;;;;;;;5.85;3.05;;;30.20;21.20;;;;;;4372841;32;20173;-70
2021/07/15 06:31:06;;;;;;;4.93;2.80;;;29.60;21.70;;;;;;4350851;32;20510;-69
2021/07/15 06:33:32;;;;;;;3.47;2.45;;;29.70;21.40;;;;;;4387214;32;20101;-77
2021/07/15 06:36:00;;;;;;;4.87;2.87;;;28.60;23.00;;;;;;4379616;32;20105;-66
2021/07/15 06:38:34;;;;;;;4.87;2.75;;;29.10;23.30;;;;;;4385547;32;20073;-66
2021/07/15 06:41:03;;;;;;;3.05;2.25;;;28.70;23.00;;;;;;4364383;32;20170;-65
2021/07/15 06:43:29;;;;;;;3.92;2.55;;;28.60;23.40;;;;;;4376616;32;20140;-65
2021/07/15 06:45:55;;;;;;;3.55;2.50;;;29.10;23.10;;;;;;4380883;32;20159;-64
2021/07/15 06:50:57;;;;;;;3.92;2.35;;;29.60;22.70;;;;;;3841291;37;20054;-64
2021/07/15 06:53:24;;;;;;;3.75;2.58;;;29.00;22.50;;;;;;4385104;32;20531;-63
2021/07/15 06:55:50;;;;;;;4.78;2.30;;;29.10;22.80;;;;;;4399187;32;20153;-65
2021/07/15 06:58:17;;;;;;;4.03;2.50;;;29.70;22.60;;;;;;4384438;32;20089;-65
2021/07/15 07:00:44;;;;;;;4.97;2.60;;;29.90;22.30;;;;;;4383284;32;20164;-65
2021/07/15 07:03:12;;;;;;;5.75;2.80;;;29.50;22.60;;;;;;4410116;32;20526;-64
2021/07/15 07:05:42;;;;;;;3.83;2.45;;;29.00;23.10;;;;;;4400290;32;20109;-65
2021/07/15 07:08:09;;;;;;;5.82;2.15;;;28.70;23.60;;;;;;4385986;32;20165;-65
2021/07/15 07:10:35;;;;;;;3.50;2.55;;;28.70;23.30;;;;;;4386872;32;20077;-65
2021/07/15 07:13:01;;;;;;;6.53;2.53;;;28.40;23.60;;;;;;4392727;32;20158;-65
2021/07/15 07:15:27;;;;;;;5.47;2.47;;;28.50;24.00;;;;;;4398798;32;20073;-64
2021/07/15 07:17:54;;;;;;;4.72;2.70;;;28.60;23.60;;;;;;4391172;32;20066;-63
2021/07/15 07:20:20;;;;;;;5.10;2.80;;;28.70;23.60;;;;;;4394160;32;20172;-64
2021/07/15 07:22:47;;;;;;;2.83;2.47;;;28.30;23.50;;;;;;4407152;32;20089;-64
2021/07/15 07:25:14;;;;;;;4.93;2.53;;;28.60;23.70;;;;;;4389937;32;20089;-64
2021/07/15 07:27:41;;;;;;;4.90;2.60;;;28.70;23.40;;;;;;4390268;32;20503;-67
2021/07/15 07:30:09;;;;;;;3.10;2.20;;;28.80;22.80;;;;;;4393996;32;20169;-63
2021/07/15 07:32:35;;;;;;;4.37;2.22;;;28.60;22.90;;;;;;4396717;32;20094;-70
2021/07/15 07:35:03;;;;;;;3.60;2.45;;;28.70;22.70;;;;;;4383127;32;20093;-71
2021/07/15 07:37:30;;;;;;;5.45;2.70;;;28.80;22.70;;;;;;4363659;32;20069;-72
2021/07/15 07:39:56;;;;;;;4.80;2.67;;;29.30;22.60;;;;;;4360653;32;20165;-66
2021/07/15 07:42:23;;;;;;;5.55;2.80;;;29.20;22.50;;;;;;4384946;32;20086;-70
2021/07/15 07:44:49;;;;;;;5.78;3.22;;;29.20;23.70;;;;;;4385032;32;20070;-67
2021/07/15 07:47:16;;;;;;;4.35;2.70;;;28.60;23.30;;;;;;4386643;32;20154;-66
2021/07/15 07:49:42;;;;;;;3.28;2.40;;;28.40;23.20;;;;;;4356841;32;20460;-68
2021/07/15 07:52:08;;;;;;;6.22;2.47;;;28.40;23.80;;;;;;4381194;32;20062;-64
2021/07/15 07:54:48;;;;;;;4.12;2.33;;;28.30;23.70;;;;;;3793651;37;20103;-65
2021/07/15 07:57:15;;;;;;;3.03;2.45;;;29.30;22.90;;;;;;4379746;32;20531;-64
2021/07/15 07:59:41;;;;;;;4.30;2.50;;;29.60;22.50;;;;;;4370435;32;20098;-65
2021/07/15 08:02:07;;;;;;;5.15;2.83;;;29.80;22.30;;;;;;4368325;32;20485;-64
2021/07/15 08:04:35;;;;;;;2.95;2.37;;;29.60;22.00;;;;;;4349564;32;20073;-64
2021/07/15 08:07:02;;;;;;;5.80;2.95;;;28.90;22.70;;;;;;4374221;32;20081;-69
2021/07/15 08:09:31;;;;;;;6.00;2.80;;;28.80;22.80;;;;;;4345732;32;20161;-64
2021/07/15 08:11:57;;;;;;;6.22;2.50;;;28.70;23.20;;;;;;4380204;32;20150;-63
2021/07/15 08:14:23;;;;;;;3.95;2.90;;;29.00;23.30;;;;;;4373351;32;20069;-65
2021/07/15 08:16:50;;;;;;;5.05;2.90;;;29.10;23.10;;;;;;4364986;32;20541;-68
2021/07/15 08:19:17;;;;;;;2.85;2.30;;;29.30;23.00;;;;;;4368444;32;20062;-66
2021/07/15 08:21:44;;;;;;;6.05;2.50;;;30.00;22.50;;;;;;4355754;32;20077;-64
2021/07/15 08:24:10;;;;;;;5.43;2.40;;;29.20;22.70;;;;;;4361903;32;20102;-63
2021/07/15 08:26:36;;;;;;;6.57;2.45;;;29.70;23.50;;;;;;4370994;32;20144;-63
2021/07/15 08:29:03;;;;;;;4.22;2.60;;;29.80;22.70;;;;;;4364605;32;20448;-63
2021/07/15 08:31:31;;;;;;;5.43;2.22;;;29.30;22.50;;;;;;4341312;32;20090;-67
2021/07/15 08:33:57;;;;;;;4.93;2.58;;;29.80;22.90;;;;;;4352729;32;20062;-65
2021/07/15 08:36:25;;;;;;;4.35;2.90;;;29.70;22.30;;;;;;4380087;32;20167;-68
2021/07/15 08:38:53;;;;;;;4.07;2.42;;;29.60;22.90;;;;;;4364784;32;20078;-64
2021/07/15 08:41:19;;;;;;;4.03;2.47;;;29.40;22.70;;;;;;4345781;32;20082;-65
2021/07/15 08:43:45;;;;;;;3.33;2.30;;;29.10;23.40;;;;;;4345561;32;20107;-64
2021/07/15 08:46:13;;;;;;;3.58;2.67;;;29.10;23.20;;;;;;4333272;32;20087;-64
2021/07/15 08:48:39;;;;;;;3.90;2.92;;;29.80;22.70;;;;;;4360167;32;20069;-66
2021/07/15 08:51:06;;;;;;;5.37;2.67;;;30.00;22.60;;;;;;4360883;32;20090;-65
2021/07/15 08:53:35;;;;;;;3.47;2.70;;;29.60;22.60;;;;;;4347020;32;20451;-64
2021/07/15 08:58:47;;;;;;;4.25;3.10;;;29.50;23.70;;;;;;4361844;32;20169;-65
2021/07/15 09:01:13;;;;;;;3.53;2.70;;;29.50;24.00;;;;;;4347318;32;20076;-65
2021/07/15 09:03:39;;;;;;;6.68;2.90;;;30.60;22.80;;;;;;4347210;32;20083;-65
2021/07/15 09:06:06;;;;;;;5.85;3.08;;;30.60;23.40;;;;;;4338057;32;20085;-65
2021/07/15 09:08:33;;;;;;;3.72;2.92;;;30.60;23.80;;;;;;4337627;32;20094;-65
2021/07/15 09:11:02;;;;;;;3.70;2.67;;;30.00;23.60;;;;;;4336387;32;20101;-65
2021/07/15 09:13:29;;;;;;;3.70;2.83;;;29.90;23.50;;;;;;4322918;32;20592;-65
2021/07/15 09:15:55;;;;;;;4.70;3.22;;;30.40;23.70;;;;;;4334960;33;20083;-66
2021/07/15 09:18:21;;;;;;;4.50;3.10;;;30.20;24.00;;;;;;4335762;33;20085;-66
2021/07/15 09:20:48;;;;;;;4.53;2.83;;;30.30;23.80;;;;;;4310683;33;20074;-66
2021/07/15 09:23:15;;;;;;;4.75;2.90;;;30.30;23.60;;;;;;4322572;33;20094;-64
2021/07/15 09:25:42;;;;;;;5.62;3.30;;;30.10;23.50;;;;;;4334816;33;20067;-65
2021/07/15 09:28:13;;;;;;;5.10;2.78;;;29.70;24.30;;;;;;4346651;33;20566;-66
2021/07/15 09:30:43;;;;;;;4.22;3.00;;;30.00;24.70;;;;;;4324271;32;20086;-65
2021/07/15 09:33:11;;;;;;;4.47;2.75;;;29.70;24.50;;;;;;4324755;32;20106;-65
2021/07/15 09:35:44;;;;;;;4.32;3.20;;;30.00;25.10;;;;;;4337209;32;20086;-66
2021/07/15 09:38:21;;;;;;;4.35;3.17;;;29.70;24.20;;;;;;4337230;32;20078;-65
2021/07/15 09:40:51;;;;;;;6.53;2.90;;;30.20;24.20;;;;;;4350123;32;20167;-65
2021/07/15 09:43:24;;;;;;;4.32;2.85;;;29.70;24.00;;;;;;4337011;32;20093;-66
2021/07/15 09:45:55;;;;;;;3.25;2.75;;;30.20;24.40;;;;;;4361313;32;20477;-66
2021/07/15 09:48:28;;;;;;;7.25;2.90;;;30.30;23.80;;;;;;4336115;32;20070;-67
2021/07/15 09:50:57;;;;;;;5.15;2.80;;;30.70;23.30;;;;;;4342049;32;20078;-65
2021/07/15 09:53:33;;;;;;;8.27;3.17;;;30.20;23.70;;;;;;4347730;32;20094;-65
2021/07/15 09:56:01;;;;;;;;;;;29.80;23.70;;;;;;4338576;32;20062;-64
2021/07/15 09:58:48;;;;;;;6.40;2.83;;;29.90;24.00;;;;;;4343060;32;20377;-64
2021/07/15 10:01:21;;;;;;;3.83;2.80;;;30.50;24.90;;;;;;4343018;32;20495;-71
2021/07/15 10:03:53;;;;;;;4.70;3.55;;;31.50;22.80;;;;;;4328030;32;20472;-69
2021/07/15 10:06:19;;;;;;;8.55;4.40;;;30.50;25.20;;;;;;4326290;32;20078;-72
2021/07/15 10:08:51;;;;;;;4.70;3.60;;;30.70;27.00;;;;;;4352676;32;20183;-69
2021/07/15 10:11:28;;;;;;;5.47;3.95;;;31.00;25.50;;;;;;4329461;32;20086;-68
2021/07/15 10:14:07;;;;;;;5.37;3.67;;;30.70;26.30;;;;;;4328273;32;20460;-67
2021/07/15 10:16:38;;;;;;;7.43;3.47;;;30.40;25.30;;;;;;4325420;32;20056;-66
2021/07/15 10:19:06;;;;;;;6.95;3.75;;;30.70;25.80;;;;;;4341888;32;20192;-70
2021/07/15 10:21:34;;;;;;;8.57;4.03;;;30.70;25.50;;;;;;4338737;32;20083;-71
2021/07/15 10:24:20;;;;;;;5.30;4.07;;;30.90;25.00;;;;;;4348528;32;20162;-69
2021/07/15 10:26:50;;;;;;;4.68;3.60;;;30.30;25.10;;;;;;4327344;32;20529;-68
2021/07/15 10:29:17;;;;;;;5.03;3.65;;;29.80;26.20;;;;;;4349933;32;20513;-67
2021/07/15 10:31:44;;;;;;;5.57;3.25;;;30.60;25.90;;;;;;4338596;32;20168;-65
2021/07/15 10:34:11;;;;;;;8.93;3.97;;;30.70;25.80;;;;;;4341752;32;20086;-67
2021/07/15 10:36:38;;;;;;;6.57;3.70;;;30.40;25.30;;;;;;4325544;32;20067;-67
2021/07/15 10:39:07;;;;;;;4.03;3.40;;;30.50;25.20;;;;;;4338818;33;20071;-66
2021/07/15 10:41:33;;;;;;;7.70;3.50;;;30.60;25.10;;;;;;4336328;32;20500;-63
2021/07/15 10:44:00;;;;;;;4.87;3.40;;;31.10;25.10;;;;;;4350440;32;20175;-71
2021/07/15 10:46:27;;;;;;;4.87;3.55;;;31.00;24.90;;;;;;4341830;32;20071;-68
2021/07/15 10:48:53;;;;;;;5.12;3.60;;;30.40;25.40;;;;;;4332050;32;20126;-69
2021/07/15 10:51:19;;;;;;;4.47;3.35;;;31.40;24.70;;;;;;4340659;32;20075;-67
2021/07/15 10:53:46;;;;;;;6.18;3.22;;;31.00;24.60;;;;;;4361119;32;20537;-68
2021/07/15 10:56:16;;;;;;;5.78;3.37;;;30.70;25.00;;;;;;4337384;32;20081;-69
2021/07/15 10:58:52;;;;;;;4.72;3.60;;;31.60;24.50;;;;;;4309966;33;20067;-66
2021/07/15 11:01:41;;;;;;;4.57;3.53;;;30.40;24.60;;;;;;4353576;32;20067;-69
2021/07/15 11:04:21;;;;;;;4.80;3.40;;;30.40;24.90;;;;;;4352198;32;20473;-68
2021/07/15 11:06:53;;;;;;;5.28;3.28;;;30.00;24.90;;;;;;4330041;32;20133;-69
2021/07/15 11:09:33;;;;;;;4.53;3.47;;;30.50;25.30;;;;;;4340639;32;20126;-70
2021/07/15 11:12:01;;;;;;;4.40;3.30;;;30.50;24.90;;;;;;4364670;32;20160;-72
2021/07/15 11:14:46;;;;;;;4.62;3.90;;;30.90;24.80;;;;;;4350297;32;20078;-71
2021/07/15 11:17:34;;;;;;;5.93;3.42;;;30.80;24.90;;;;;;4327864;32;20445;-72
2021/07/15 11:20:10;;;;;;;6.68;3.75;;;30.30;25.20;;;;;;4341399;32;20099;-71
2021/07/15 11:23:08;;;;;;;4.12;3.55;;;30.40;24.60;;;;;;4339577;32;20113;-72
2021/07/15 11:25:41;;;;;;;6.03;3.83;;;30.70;24.50;;;;;;4348632;32;20089;-72
2021/07/15 11:28:14;;;;;;;4.85;3.70;;;31.20;24.20;;;;;;4329868;32;20206;-72
2021/07/15 11:30:56;;;;;;;5.22;3.47;;;30.60;24.10;;;;;;4345633;32;20095;-73
2021/07/15 11:33:22;;;;;;;4.80;3.17;;;31.10;24.40;;;;;;4349426;32;20539;-63
2021/07/15 11:36:12;;;;;;;4.32;3.45;;;30.80;24.40;;;;;;4347343;32;20088;-62
2021/07/15 11:38:57;;;;;;;5.47;3.70;;;30.80;24.40;;;;;;4343258;32;20464;-61
2021/07/15 11:41:23;;;;;;;5.82;3.53;;;30.60;25.00;;;;;;4358346;32;20082;-62
2021/07/15 11:43:58;;;;;;;6.03;3.90;;;30.80;25.30;;;;;;4309004;32;20170;-63
2021/07/15 11:46:36;;;;;;;4.93;3.80;;;30.80;25.30;;;;;;4335647;32;20640;-65
2021/07/15 11:49:12;;;;;;;4.82;4.03;;;30.70;25.80;;;;;;4327506;33;20075;-64
2021/07/15 11:51:43;;;;;;;5.47;4.03;;;30.80;25.20;;;;;;4348806;32;20056;-64
2021/07/15 11:54:28;;;;;;;5.10;4.22;;;31.10;25.10;;;;;;4329081;33;20067;-65
2021/07/15 11:57:00;;;;;;;6.03;4.03;;;31.40;25.30;;;;;;4342356;32;20088;-65
2021/07/15 11:59:43;;;;;;;4.87;3.97;;;30.30;25.30;;;;;;4327510;32;20076;-64
2021/07/15 12:02:46;;;;;;;5.45;3.60;;;30.90;25.00;;;;;;4349309;32;20492;-64
2021/07/15 12:05:28;;;;;;;4.80;3.40;;;30.90;24.60;;;;;;4331309;32;20071;-64
2021/07/15 12:08:16;;;;;;;4.82;3.83;;;30.90;25.30;;;;;;4325061;32;20183;-64
2021/07/15 12:10:47;;;;;;;4.72;3.70;;;31.40;24.70;;;;;;4317885;32;20069;-64
2021/07/15 12:13:16;;;;;;;3.92;3.45;;;30.90;24.20;;;;;;4340533;32;20090;-64
2021/07/15 12:15:44;;;;;;;5.78;3.75;;;30.80;24.80;;;;;;4323899;32;20514;-64
2021/07/15 12:18:19;;;;;;;5.10;3.78;;;30.80;24.60;;;;;;4337371;32;20118;-70
2021/07/15 12:20:59;;;;;;;5.45;4.07;;;31.00;24.40;;;;;;4337704;32;20131;-63
2021/07/15 12:23:41;;;;;;;5.35;3.47;;;31.00;25.00;;;;;;4328151;32;20079;-64
2021/07/15 12:26:13;;;;;;;4.57;3.92;;;31.20;24.80;;;;;;4325793;32;20093;-65
2021/07/15 12:28:45;;;;;;;5.75;4.10;;;30.60;24.80;;;;;;4338211;32;20067;-64
2021/07/15 12:31:11;;;;;;;4.80;3.85;;;30.80;25.20;;;;;;4330778;32;20546;-63
2021/07/15 12:33:38;;;;;;;4.35;3.60;;;31.10;24.80;;;;;;4323751;32;20101;-65
2021/07/15 12:36:26;;;;;;;5.55;3.95;;;31.20;24.90;;;;;;4358736;32;20134;-64
2021/07/15 12:38:56;;;;;;;6.12;3.83;;;30.90;24.90;;;;;;4330189;32;20456;-64
2021/07/15 12:41:28;;;;;;;5.43;3.87;;;30.50;26.10;;;;;;4329753;32;20536;-65
2021/07/15 12:44:19;;;;;;;6.05;3.55;;;30.70;25.50;;;;;;4354541;32;20070;-65
2021/07/15 12:47:03;;;;;;;4.45;3.75;;;30.60;25.80;;;;;;4334356;32;20141;-65
2021/07/15 12:49:30;;;;;;;6.32;3.58;;;30.70;26.30;;;;;;4330962;32;20074;-66
2021/07/15 12:51:59;;;;;;;6.37;3.50;;;31.10;24.60;;;;;;4350556;32;20098;-64
2021/07/15 12:54:36;;;;;;;6.68;3.62;;;31.50;24.70;;;;;;4341881;32;20081;-65
2021/07/15 12:57:08;;;;;;;5.65;3.65;;;31.20;23.90;;;;;;4328972;32;20162;-66
2021/07/15 12:59:35;;;;;;;5.57;3.60;;;31.00;24.60;;;;;;4331607;33;20090;-65
2021/07/15 13:02:01;;;;;;;4.93;3.60;;;31.30;24.20;;;;;;4355041;33;20134;-67
2021/07/15 13:04:28;;;;;;;6.50;3.72;;;31.10;24.50;;;;;;4350726;32;20063;-66
2021/07/15 13:07:03;;;;;;;5.45;3.50;;;31.20;24.20;;;;;;4343463;32;20213;-65